sensor_id;sensor_type;location;lat;lon;timestamp;P1;durP1;ratioP1;P2;durP2;ratioP2
44642;SDS011;33930;-34.276;150.954;2022-08-11T00:01:48;11.02;;;2.88;;
44642;SDS011;33930;-34.276;150.954;2022-08-11T00:04:20;14.80;;;3.25;;
44642;SDS011;33930;-34.276;150.954;2022-08-11T00:06:50;10.85;;;2.47;;
44642;SDS011;33930;-34.276;150.954;2022-08-11T00:09:20;13.70;;;2.13;;
44642;SDS011;33930;-34.276;150.954;2022-08-11T00:11:56;10.90;;;1.85;;
44642;SDS011;33930;-34.276;150.954;2022-08-11T00:14:26;19.10;;;3.72;;
44642;SDS011;33930;-34.276;150.954;2022-08-11T00:16:57;11.40;;;2.25;;
44642;SDS011;33930;-34.276;150.954;2022-08-11T00:19:29;8.80;;;1.88;;
44642;SDS011;33930;-34.276;150.954;2022-08-11T00:22:02;11.10;;;1.60;;
44642;SDS011;33930;-34.276;150.954;2022-08-11T00:24:35;4.40;;;1.20;;
44642;SDS011;33930;-34.276;150.954;2022-08-11T00:27:04;14.10;;;2.60;;
44642;SDS011;33930;-34.276;150.954;2022-08-11T00:29:32;16.45;;;2.83;;
44642;SDS011;33930;-34.276;150.954;2022-08-11T00:32:00;7.05;;;1.65;;
44642;SDS011;33930;-34.276;150.954;2022-08-11T00:34:32;12.95;;;1.98;;
44642;SDS011;33930;-34.276;150.954;2022-08-11T00:37:03;15.85;;;2.30;;
44642;SDS011;33930;-34.276;150.954;2022-08-11T00:39:42;16.00;;;2.35;;
44642;SDS011;33930;-34.276;150.954;2022-08-11T00:42:25;9.20;;;1.95;;
44642;SDS011;33930;-34.276;150.954;2022-08-11T00:45:26;24.73;;;2.80;;
44642;SDS011;33930;-34.276;150.954;2022-08-11T00:48:10;16.55;;;2.53;;
44642;SDS011;33930;-34.276;150.954;2022-08-11T00:53:54;6.85;;;2.33;;
44642;SDS011;33930;-34.276;150.954;2022-08-11T00:56:56;11.85;;;3.13;;
44642;SDS011;33930;-34.276;150.954;2022-08-11T01:10:47;10.07;;;1.00;;
44642;SDS011;33930;-34.276;150.954;2022-08-11T01:13:53;7.68;;;1.92;;
44642;SDS011;33930;-34.276;150.954;2022-08-11T01:16:53;12.88;;;1.83;;
44642;SDS011;33930;-34.276;150.954;2022-08-11T01:22:58;5.65;;;1.23;;
44642;SDS011;33930;-34.276;150.954;2022-08-11T01:25:48;15.02;;;1.75;;
44642;SDS011;33930;-34.276;150.954;2022-08-11T01:40:01;9.27;;;1.70;;
44642;SDS011;33930;-34.276;150.954;2022-08-11T01:51:19;9.77;;;1.52;;
44642;SDS011;33930;-34.276;150.954;2022-08-11T01:54:02;6.47;;;1.40;;
44642;SDS011;33930;-34.276;150.954;2022-08-11T02:02:30;10.43;;;1.70;;
44642;SDS011;33930;-34.276;150.954;2022-08-11T02:27:49;11.52;;;2.50;;
44642;SDS011;33930;-34.276;150.954;2022-08-11T02:30:28;7.88;;;1.55;;
44642;SDS011;33930;-34.276;150.954;2022-08-11T02:41:09;12.43;;;2.10;;
44642;SDS011;33930;-34.276;150.954;2022-08-11T02:44:35;10.40;;;1.63;;
44642;SDS011;33930;-34.276;150.954;2022-08-11T02:50:50;6.57;;;1.63;;
44642;SDS011;33930;-34.276;150.954;2022-08-11T02:53:35;12.80;;;1.70;;
44642;SDS011;33930;-34.276;150.954;2022-08-11T03:10:50;15.20;;;2.05;;
44642;SDS011;33930;-34.276;150.954;2022-08-11T03:13:58;20.73;;;2.03;;
44642;SDS011;33930;-34.276;150.954;2022-08-11T03:16:53;20.58;;;3.33;;
44642;SDS011;33930;-34.276;150.954;2022-08-11T03:34:08;15.45;;;2.42;;
44642;SDS011;33930;-34.276;150.954;2022-08-11T03:45:24;18.85;;;3.45;;
44642;SDS011;33930;-34.276;150.954;2022-08-11T04:11:10;22.20;;;3.45;;
44642;SDS011;33930;-34.276;150.954;2022-08-11T04:31:23;10.07;;;2.15;;
44642;SDS011;33930;-34.276;150.954;2022-08-11T04:34:03;10.38;;;2.25;;
44642;SDS011;33930;-34.276;150.954;2022-08-11T04:46:19;10.38;;;2.50;;
44642;SDS011;33930;-34.276;150.954;2022-08-11T05:13:29;12.63;;;2.07;;
44642;SDS011;33930;-34.276;150.954;2022-08-11T05:16:21;15.07;;;2.83;;
44642;SDS011;33930;-34.276;150.954;2022-08-11T05:19:18;23.35;;;2.72;;
44642;SDS011;33930;-34.276;150.954;2022-08-11T05:22:09;15.18;;;2.50;;
44642;SDS011;33930;-34.276;150.954;2022-08-11T05:25:05;13.55;;;1.75;;
44642;SDS011;33930;-34.276;150.954;2022-08-11T05:28:04;16.10;;;3.22;;
44642;SDS011;33930;-34.276;150.954;2022-08-11T05:30:59;12.45;;;2.10;;
44642;SDS011;33930;-34.276;150.954;2022-08-11T05:34:26;13.07;;;2.13;;
44642;SDS011;33930;-34.276;150.954;2022-08-11T05:37:13;18.80;;;3.05;;
44642;SDS011;33930;-34.276;150.954;2022-08-11T05:39:48;10.82;;;3.15;;
44642;SDS011;33930;-34.276;150.954;2022-08-11T05:42:37;16.17;;;3.33;;
44642;SDS011;33930;-34.276;150.954;2022-08-11T05:45:31;11.43;;;1.95;;
44642;SDS011;33930;-34.276;150.954;2022-08-11T05:48:19;9.45;;;2.50;;
44642;SDS011;33930;-34.276;150.954;2022-08-11T05:51:05;8.25;;;2.63;;
44642;SDS011;33930;-34.276;150.954;2022-08-11T05:53:52;21.30;;;4.38;;
44642;SDS011;33930;-34.276;150.954;2022-08-11T05:56:50;10.45;;;3.60;;
44642;SDS011;33930;-34.276;150.954;2022-08-11T05:59:24;13.75;;;4.05;;
44642;SDS011;33930;-34.276;150.954;2022-08-11T06:01:57;15.32;;;3.50;;
44642;SDS011;33930;-34.276;150.954;2022-08-11T06:04:26;12.07;;;3.25;;
44642;SDS011;33930;-34.276;150.954;2022-08-11T06:06:59;15.25;;;3.22;;
44642;SDS011;33930;-34.276;150.954;2022-08-11T06:12:00;8.80;;;1.30;;
44642;SDS011;33930;-34.276;150.954;2022-08-11T06:14:40;6.90;;;1.20;;
44642;SDS011;33930;-34.276;150.954;2022-08-11T06:17:10;7.72;;;1.20;;
44642;SDS011;33930;-34.276;150.954;2022-08-11T06:19:41;3.60;;;1.17;;
44642;SDS011;33930;-34.276;150.954;2022-08-11T06:22:18;2.72;;;0.88;;
44642;SDS011;33930;-34.276;150.954;2022-08-11T06:27:19;5.35;;;1.02;;
44642;SDS011;33930;-34.276;150.954;2022-08-11T06:29:51;4.00;;;0.60;;
44642;SDS011;33930;-34.276;150.954;2022-08-11T06:32:20;5.03;;;1.30;;
44642;SDS011;33930;-34.276;150.954;2022-08-11T06:35:00;3.30;;;1.02;;
44642;SDS011;33930;-34.276;150.954;2022-08-11T06:37:39;3.90;;;0.45;;
44642;SDS011;33930;-34.276;150.954;2022-08-11T06:43:32;2.55;;;0.70;;
44642;SDS011;33930;-34.276;150.954;2022-08-11T06:46:21;1.13;;;0.45;;
44642;SDS011;33930;-34.276;150.954;2022-08-11T06:49:02;1.75;;;0.50;;
44642;SDS011;33930;-34.276;150.954;2022-08-11T06:51:33;2.80;;;0.47;;
44642;SDS011;33930;-34.276;150.954;2022-08-11T06:54:02;2.03;;;0.88;;
44642;SDS011;33930;-34.276;150.954;2022-08-11T06:56:34;1.65;;;0.75;;
44642;SDS011;33930;-34.276;150.954;2022-08-11T06:59:21;3.55;;;0.82;;
44642;SDS011;33930;-34.276;150.954;2022-08-11T07:05:20;1.55;;;0.63;;
44642;SDS011;33930;-34.276;150.954;2022-08-11T07:14:30;3.92;;;0.70;;
44642;SDS011;33930;-34.276;150.954;2022-08-11T07:17:18;3.28;;;1.00;;
44642;SDS011;33930;-34.276;150.954;2022-08-11T07:19:51;3.25;;;0.28;;
44642;SDS011;33930;-34.276;150.954;2022-08-11T07:22:42;5.68;;;0.57;;
44642;SDS011;33930;-34.276;150.954;2022-08-11T07:25:50;2.13;;;0.77;;
44642;SDS011;33930;-34.276;150.954;2022-08-11T07:28:38;6.30;;;1.27;;
44642;SDS011;33930;-34.276;150.954;2022-08-11T07:31:20;2.55;;;0.60;;
44642;SDS011;33930;-34.276;150.954;2022-08-11T07:41:52;1.48;;;0.77;;
44642;SDS011;33930;-34.276;150.954;2022-08-11T07:44:22;4.28;;;0.85;;
44642;SDS011;33930;-34.276;150.954;2022-08-11T07:46:53;4.40;;;0.70;;
44642;SDS011;33930;-34.276;150.954;2022-08-11T07:49:43;3.03;;;0.63;;
44642;SDS011;33930;-34.276;150.954;2022-08-11T07:52:32;2.67;;;0.73;;
44642;SDS011;33930;-34.276;150.954;2022-08-11T07:55:04;2.40;;;1.30;;
44642;SDS011;33930;-34.276;150.954;2022-08-11T07:57:34;2.15;;;0.90;;
44642;SDS011;33930;-34.276;150.954;2022-08-11T08:00:19;2.75;;;1.23;;
44642;SDS011;33930;-34.276;150.954;2022-08-11T08:03:05;4.22;;;0.80;;
44642;SDS011;33930;-34.276;150.954;2022-08-11T08:05:52;3.15;;;1.10;;
44642;SDS011;33930;-34.276;150.954;2022-08-11T08:08:39;3.88;;;0.77;;
44642;SDS011;33930;-34.276;150.954;2022-08-11T08:11:25;4.63;;;0.70;;
44642;SDS011;33930;-34.276;150.954;2022-08-11T08:14:16;5.45;;;0.90;;
44642;SDS011;33930;-34.276;150.954;2022-08-11T08:17:10;2.55;;;0.85;;
44642;SDS011;33930;-34.276;150.954;2022-08-11T08:20:04;4.05;;;0.95;;
44642;SDS011;33930;-34.276;150.954;2022-08-11T08:22:35;4.65;;;0.93;;
44642;SDS011;33930;-34.276;150.954;2022-08-11T08:25:03;4.88;;;1.45;;
44642;SDS011;33930;-34.276;150.954;2022-08-11T08:27:33;4.13;;;1.10;;
44642;SDS011;33930;-34.276;150.954;2022-08-11T08:30:03;3.55;;;0.93;;
44642;SDS011;33930;-34.276;150.954;2022-08-11T08:32:50;2.50;;;0.95;;
44642;SDS011;33930;-34.276;150.954;2022-08-11T08:35:20;6.45;;;1.08;;
44642;SDS011;33930;-34.276;150.954;2022-08-11T08:37:48;4.20;;;1.20;;
44642;SDS011;33930;-34.276;150.954;2022-08-11T08:40:16;5.93;;;1.30;;
44642;SDS011;33930;-34.276;150.954;2022-08-11T08:42:48;6.07;;;1.30;;
44642;SDS011;33930;-34.276;150.954;2022-08-11T08:45:23;4.70;;;1.52;;
44642;SDS011;33930;-34.276;150.954;2022-08-11T08:48:02;3.20;;;1.20;;
44642;SDS011;33930;-34.276;150.954;2022-08-11T08:50:52;8.60;;;2.60;;
44642;SDS011;33930;-34.276;150.954;2022-08-11T08:53:49;3.60;;;1.00;;
44642;SDS011;33930;-34.276;150.954;2022-08-11T08:56:19;3.25;;;1.15;;
44642;SDS011;33930;-34.276;150.954;2022-08-11T08:58:52;3.88;;;0.95;;
44642;SDS011;33930;-34.276;150.954;2022-08-11T09:01:23;3.10;;;1.23;;
44642;SDS011;33930;-34.276;150.954;2022-08-11T09:03:53;5.13;;;1.60;;
44642;SDS011;33930;-34.276;150.954;2022-08-11T09:06:20;5.80;;;1.73;;
44642;SDS011;33930;-34.276;150.954;2022-08-11T09:08:48;7.05;;;1.63;;
44642;SDS011;33930;-34.276;150.954;2022-08-11T09:11:16;4.20;;;1.50;;
44642;SDS011;33930;-34.276;150.954;2022-08-11T09:14:02;3.15;;;1.65;;
44642;SDS011;33930;-34.276;150.954;2022-08-11T09:16:30;3.13;;;1.35;;
44642;SDS011;33930;-34.276;150.954;2022-08-11T09:18:57;4.38;;;2.03;;
44642;SDS011;33930;-34.276;150.954;2022-08-11T09:21:26;1.83;;;1.10;;
44642;SDS011;33930;-34.276;150.954;2022-08-11T09:23:56;4.25;;;1.70;;
44642;SDS011;33930;-34.276;150.954;2022-08-11T09:26:42;3.60;;;1.30;;
44642;SDS011;33930;-34.276;150.954;2022-08-11T09:29:29;9.35;;;1.30;;
44642;SDS011;33930;-34.276;150.954;2022-08-11T09:31:58;4.43;;;1.30;;
44642;SDS011;33930;-34.276;150.954;2022-08-11T09:34:25;8.55;;;1.42;;
44642;SDS011;33930;-34.276;150.954;2022-08-11T09:36:53;7.88;;;1.50;;
44642;SDS011;33930;-34.276;150.954;2022-08-11T09:39:39;7.00;;;2.15;;
44642;SDS011;33930;-34.276;150.954;2022-08-11T09:42:25;6.85;;;1.58;;
44642;SDS011;33930;-34.276;150.954;2022-08-11T09:45:13;2.38;;;1.20;;
44642;SDS011;33930;-34.276;150.954;2022-08-11T09:47:41;5.63;;;1.35;;
44642;SDS011;33930;-34.276;150.954;2022-08-11T09:50:10;2.13;;;1.23;;
44642;SDS011;33930;-34.276;150.954;2022-08-11T09:52:40;2.83;;;1.33;;
44642;SDS011;33930;-34.276;150.954;2022-08-11T09:55:09;3.53;;;1.83;;
44642;SDS011;33930;-34.276;150.954;2022-08-11T09:57:44;4.40;;;1.20;;
44642;SDS011;33930;-34.276;150.954;2022-08-11T10:00:31;5.10;;;1.50;;
44642;SDS011;33930;-34.276;150.954;2022-08-11T10:03:25;5.50;;;1.48;;
44642;SDS011;33930;-34.276;150.954;2022-08-11T10:06:00;3.83;;;1.90;;
44642;SDS011;33930;-34.276;150.954;2022-08-11T10:08:48;5.93;;;1.63;;
44642;SDS011;33930;-34.276;150.954;2022-08-11T10:11:20;5.63;;;1.55;;
44642;SDS011;33930;-34.276;150.954;2022-08-11T10:13:50;11.52;;;2.22;;
44642;SDS011;33930;-34.276;150.954;2022-08-11T10:16:38;9.75;;;2.28;;
44642;SDS011;33930;-34.276;150.954;2022-08-11T10:19:07;13.02;;;4.15;;
44642;SDS011;33930;-34.276;150.954;2022-08-11T10:21:37;14.35;;;3.25;;
44642;SDS011;33930;-34.276;150.954;2022-08-11T10:24:30;8.07;;;3.45;;
44642;SDS011;33930;-34.276;150.954;2022-08-11T10:27:16;6.35;;;2.72;;
44642;SDS011;33930;-34.276;150.954;2022-08-11T10:29:44;7.63;;;2.00;;
44642;SDS011;33930;-34.276;150.954;2022-08-11T10:32:30;7.00;;;1.98;;
44642;SDS011;33930;-34.276;150.954;2022-08-11T10:35:17;11.70;;;3.20;;
44642;SDS011;33930;-34.276;150.954;2022-08-11T10:37:46;9.43;;;2.30;;
44642;SDS011;33930;-34.276;150.954;2022-08-11T10:40:15;5.05;;;1.70;;
44642;SDS011;33930;-34.276;150.954;2022-08-11T10:42:48;5.80;;;1.92;;
44642;SDS011;33930;-34.276;150.954;2022-08-11T10:45:30;9.48;;;2.35;;
44642;SDS011;33930;-34.276;150.954;2022-08-11T10:48:24;12.30;;;3.13;;
44642;SDS011;33930;-34.276;150.954;2022-08-11T10:50:53;6.90;;;3.92;;
44642;SDS011;33930;-34.276;150.954;2022-08-11T10:53:53;5.60;;;3.13;;
44642;SDS011;33930;-34.276;150.954;2022-08-11T10:56:38;6.55;;;2.53;;
44642;SDS011;33930;-34.276;150.954;2022-08-11T10:59:25;5.53;;;1.95;;
44642;SDS011;33930;-34.276;150.954;2022-08-11T11:01:54;11.23;;;3.13;;
44642;SDS011;33930;-34.276;150.954;2022-08-11T11:04:27;9.07;;;3.33;;
44642;SDS011;33930;-34.276;150.954;2022-08-11T11:07:20;5.95;;;2.20;;
44642;SDS011;33930;-34.276;150.954;2022-08-11T11:09:51;7.55;;;2.30;;
44642;SDS011;33930;-34.276;150.954;2022-08-11T11:15:16;4.03;;;1.83;;
44642;SDS011;33930;-34.276;150.954;2022-08-11T11:18:05;4.75;;;1.30;;
44642;SDS011;33930;-34.276;150.954;2022-08-11T11:20:50;5.20;;;2.15;;
44642;SDS011;33930;-34.276;150.954;2022-08-11T11:26:22;6.45;;;1.80;;
44642;SDS011;33930;-34.276;150.954;2022-08-11T11:37:29;4.18;;;2.03;;
44642;SDS011;33930;-34.276;150.954;2022-08-11T11:42:58;4.80;;;1.83;;
44642;SDS011;33930;-34.276;150.954;2022-08-11T11:45:26;8.23;;;1.95;;
44642;SDS011;33930;-34.276;150.954;2022-08-11T11:47:54;7.22;;;2.13;;
44642;SDS011;33930;-34.276;150.954;2022-08-11T11:52:55;5.85;;;1.58;;
44642;SDS011;33930;-34.276;150.954;2022-08-11T11:55:26;6.22;;;1.67;;
44642;SDS011;33930;-34.276;150.954;2022-08-11T11:57:55;3.88;;;1.77;;
44642;SDS011;33930;-34.276;150.954;2022-08-11T12:00:43;4.80;;;2.00;;
44642;SDS011;33930;-34.276;150.954;2022-08-11T12:03:29;15.07;;;2.40;;
44642;SDS011;33930;-34.276;150.954;2022-08-11T12:05:59;5.85;;;2.15;;
44642;SDS011;33930;-34.276;150.954;2022-08-11T12:08:27;9.63;;;2.25;;
44642;SDS011;33930;-34.276;150.954;2022-08-11T12:10:56;6.68;;;2.17;;
44642;SDS011;33930;-34.276;150.954;2022-08-11T12:13:45;7.03;;;2.28;;
44642;SDS011;33930;-34.276;150.954;2022-08-11T12:16:15;6.20;;;2.05;;
44642;SDS011;33930;-34.276;150.954;2022-08-11T12:18:48;9.73;;;2.47;;
44642;SDS011;33930;-34.276;150.954;2022-08-11T12:21:18;8.20;;;2.20;;
44642;SDS011;33930;-34.276;150.954;2022-08-11T12:23:46;8.32;;;2.40;;
44642;SDS011;33930;-34.276;150.954;2022-08-11T12:26:33;11.85;;;2.67;;
44642;SDS011;33930;-34.276;150.954;2022-08-11T12:29:20;7.63;;;2.05;;
44642;SDS011;33930;-34.276;150.954;2022-08-11T12:31:52;12.27;;;2.55;;
44642;SDS011;33930;-34.276;150.954;2022-08-11T12:34:24;12.73;;;2.17;;
44642;SDS011;33930;-34.276;150.954;2022-08-11T12:39:26;13.55;;;3.63;;
44642;SDS011;33930;-34.276;150.954;2022-08-11T12:42:17;5.32;;;1.75;;
44642;SDS011;33930;-34.276;150.954;2022-08-11T12:45:02;7.55;;;1.90;;
44642;SDS011;33930;-34.276;150.954;2022-08-11T12:47:53;6.40;;;2.40;;
44642;SDS011;33930;-34.276;150.954;2022-08-11T12:50:54;9.65;;;2.22;;
44642;SDS011;33930;-34.276;150.954;2022-08-11T12:54:16;11.15;;;2.50;;
44642;SDS011;33930;-34.276;150.954;2022-08-11T12:57:02;17.92;;;2.97;;
44642;SDS011;33930;-34.276;150.954;2022-08-11T13:00:00;4.97;;;1.65;;
44642;SDS011;33930;-34.276;150.954;2022-08-11T13:02:48;10.23;;;2.50;;
44642;SDS011;33930;-34.276;150.954;2022-08-11T13:05:33;7.50;;;2.15;;
44642;SDS011;33930;-34.276;150.954;2022-08-11T13:08:02;14.63;;;2.58;;
44642;SDS011;33930;-34.276;150.954;2022-08-11T13:10:31;7.13;;;2.17;;
44642;SDS011;33930;-34.276;150.954;2022-08-11T13:13:17;12.30;;;1.98;;
44642;SDS011;33930;-34.276;150.954;2022-08-11T13:15:48;12.70;;;2.67;;
44642;SDS011;33930;-34.276;150.954;2022-08-11T13:18:20;8.25;;;2.28;;
44642;SDS011;33930;-34.276;150.954;2022-08-11T13:20:52;9.88;;;2.63;;
44642;SDS011;33930;-34.276;150.954;2022-08-11T13:23:21;9.43;;;2.38;;
44642;SDS011;33930;-34.276;150.954;2022-08-11T13:25:50;7.38;;;2.65;;
44642;SDS011;33930;-34.276;150.954;2022-08-11T13:28:23;12.45;;;2.63;;
44642;SDS011;33930;-34.276;150.954;2022-08-11T13:30:51;10.93;;;3.40;;
44642;SDS011;33930;-34.276;150.954;2022-08-11T13:33:40;6.88;;;2.30;;
44642;SDS011;33930;-34.276;150.954;2022-08-11T13:36:11;8.50;;;2.35;;
44642;SDS011;33930;-34.276;150.954;2022-08-11T13:38:42;9.32;;;2.20;;
44642;SDS011;33930;-34.276;150.954;2022-08-11T13:41:10;9.13;;;2.63;;
44642;SDS011;33930;-34.276;150.954;2022-08-11T13:43:55;5.22;;;2.25;;
44642;SDS011;33930;-34.276;150.954;2022-08-11T13:46:23;6.65;;;1.85;;
44642;SDS011;33930;-34.276;150.954;2022-08-11T13:48:54;6.20;;;2.25;;
44642;SDS011;33930;-34.276;150.954;2022-08-11T13:51:24;10.52;;;2.22;;
44642;SDS011;33930;-34.276;150.954;2022-08-11T13:53:59;9.68;;;2.05;;
44642;SDS011;33930;-34.276;150.954;2022-08-11T13:56:27;9.15;;;2.30;;
44642;SDS011;33930;-34.276;150.954;2022-08-11T13:58:56;5.72;;;2.22;;
44642;SDS011;33930;-34.276;150.954;2022-08-11T14:01:25;8.43;;;3.38;;
44642;SDS011;33930;-34.276;150.954;2022-08-11T14:03:58;11.48;;;2.97;;
44642;SDS011;33930;-34.276;150.954;2022-08-11T14:06:33;6.38;;;2.17;;
44642;SDS011;33930;-34.276;150.954;2022-08-11T14:09:03;11.65;;;2.58;;
44642;SDS011;33930;-34.276;150.954;2022-08-11T14:11:34;8.18;;;3.03;;
44642;SDS011;33930;-34.276;150.954;2022-08-11T14:14:22;14.55;;;2.28;;
44642;SDS011;33930;-34.276;150.954;2022-08-11T14:16:52;6.75;;;2.20;;
44642;SDS011;33930;-34.276;150.954;2022-08-11T14:19:22;8.40;;;2.50;;
44642;SDS011;33930;-34.276;150.954;2022-08-11T14:21:51;9.45;;;2.40;;
44642;SDS011;33930;-34.276;150.954;2022-08-11T14:24:35;6.35;;;2.75;;
44642;SDS011;33930;-34.276;150.954;2022-08-11T14:27:11;10.95;;;2.60;;
44642;SDS011;33930;-34.276;150.954;2022-08-11T14:29:40;5.93;;;2.00;;
44642;SDS011;33930;-34.276;150.954;2022-08-11T14:32:09;9.63;;;2.25;;
44642;SDS011;33930;-34.276;150.954;2022-08-11T14:34:39;8.32;;;2.65;;
44642;SDS011;33930;-34.276;150.954;2022-08-11T14:37:09;14.65;;;2.30;;
44642;SDS011;33930;-34.276;150.954;2022-08-11T14:39:52;12.68;;;3.35;;
44642;SDS011;33930;-34.276;150.954;2022-08-11T14:42:24;9.77;;;2.35;;
44642;SDS011;33930;-34.276;150.954;2022-08-11T14:45:13;19.05;;;2.72;;
44642;SDS011;33930;-34.276;150.954;2022-08-11T14:48:03;6.30;;;2.15;;
44642;SDS011;33930;-34.276;150.954;2022-08-11T14:50:34;9.15;;;2.15;;
44642;SDS011;33930;-34.276;150.954;2022-08-11T14:53:07;9.88;;;2.35;;
44642;SDS011;33930;-34.276;150.954;2022-08-11T14:58:24;11.38;;;2.65;;
44642;SDS011;33930;-34.276;150.954;2022-08-11T15:00:56;14.88;;;2.65;;
44642;SDS011;33930;-34.276;150.954;2022-08-11T15:03:27;7.05;;;2.17;;
44642;SDS011;33930;-34.276;150.954;2022-08-11T15:05:58;8.00;;;2.38;;
44642;SDS011;33930;-34.276;150.954;2022-08-11T15:08:30;10.32;;;2.35;;
44642;SDS011;33930;-34.276;150.954;2022-08-11T15:11:18;7.68;;;2.33;;
44642;SDS011;33930;-34.276;150.954;2022-08-11T15:14:06;11.50;;;2.63;;
44642;SDS011;33930;-34.276;150.954;2022-08-11T15:16:36;13.88;;;2.47;;
44642;SDS011;33930;-34.276;150.954;2022-08-11T15:19:27;11.52;;;2.67;;
44642;SDS011;33930;-34.276;150.954;2022-08-11T15:21:56;9.98;;;2.38;;
44642;SDS011;33930;-34.276;150.954;2022-08-11T15:24:41;9.48;;;2.03;;
44642;SDS011;33930;-34.276;150.954;2022-08-11T15:27:11;6.15;;;2.45;;
44642;SDS011;33930;-34.276;150.954;2022-08-11T15:30:00;5.63;;;2.25;;
44642;SDS011;33930;-34.276;150.954;2022-08-11T15:32:48;10.40;;;2.58;;
44642;SDS011;33930;-34.276;150.954;2022-08-11T15:35:35;7.45;;;2.55;;
44642;SDS011;33930;-34.276;150.954;2022-08-11T15:38:22;9.38;;;2.42;;
44642;SDS011;33930;-34.276;150.954;2022-08-11T15:40:50;9.63;;;3.05;;
44642;SDS011;33930;-34.276;150.954;2022-08-11T15:46:40;14.18;;;2.95;;
44642;SDS011;33930;-34.276;150.954;2022-08-11T15:52:12;7.68;;;2.20;;
44642;SDS011;33930;-34.276;150.954;2022-08-11T15:54:44;10.20;;;2.42;;
44642;SDS011;33930;-34.276;150.954;2022-08-11T15:57:14;14.75;;;2.78;;
44642;SDS011;33930;-34.276;150.954;2022-08-11T16:00:03;19.73;;;3.97;;
44642;SDS011;33930;-34.276;150.954;2022-08-11T16:02:50;7.57;;;2.42;;
44642;SDS011;33930;-34.276;150.954;2022-08-11T16:05:22;9.38;;;2.53;;
44642;SDS011;33930;-34.276;150.954;2022-08-11T16:07:51;8.25;;;2.95;;
44642;SDS011;33930;-34.276;150.954;2022-08-11T16:10:20;9.88;;;2.72;;
44642;SDS011;33930;-34.276;150.954;2022-08-11T16:12:58;6.88;;;1.98;;
44642;SDS011;33930;-34.276;150.954;2022-08-11T16:15:30;12.00;;;2.42;;
44642;SDS011;33930;-34.276;150.954;2022-08-11T16:18:21;6.18;;;2.05;;
44642;SDS011;33930;-34.276;150.954;2022-08-11T16:21:13;5.38;;;2.20;;
44642;SDS011;33930;-34.276;150.954;2022-08-11T16:23:51;6.82;;;2.20;;
44642;SDS011;33930;-34.276;150.954;2022-08-11T16:26:21;5.70;;;2.10;;
44642;SDS011;33930;-34.276;150.954;2022-08-11T16:28:53;11.52;;;2.22;;
44642;SDS011;33930;-34.276;150.954;2022-08-11T16:31:22;15.07;;;2.20;;
44642;SDS011;33930;-34.276;150.954;2022-08-11T16:33:51;10.70;;;2.33;;
44642;SDS011;33930;-34.276;150.954;2022-08-11T16:36:19;9.57;;;2.55;;
44642;SDS011;33930;-34.276;150.954;2022-08-11T16:39:07;14.40;;;2.70;;
44642;SDS011;33930;-34.276;150.954;2022-08-11T16:41:37;9.50;;;2.58;;
44642;SDS011;33930;-34.276;150.954;2022-08-11T16:44:25;21.05;;;3.03;;
44642;SDS011;33930;-34.276;150.954;2022-08-11T16:47:14;9.75;;;1.77;;
44642;SDS011;33930;-34.276;150.954;2022-08-11T16:49:47;10.65;;;2.50;;
44642;SDS011;33930;-34.276;150.954;2022-08-11T16:52:17;14.02;;;2.88;;
44642;SDS011;33930;-34.276;150.954;2022-08-11T16:54:47;11.38;;;2.63;;
44642;SDS011;33930;-34.276;150.954;2022-08-11T16:57:16;11.25;;;2.35;;
44642;SDS011;33930;-34.276;150.954;2022-08-11T17:00:06;15.38;;;2.65;;
44642;SDS011;33930;-34.276;150.954;2022-08-11T17:02:41;9.02;;;2.33;;
44642;SDS011;33930;-34.276;150.954;2022-08-11T17:05:34;14.85;;;3.15;;
44642;SDS011;33930;-34.276;150.954;2022-08-11T17:08:28;14.65;;;2.55;;
44642;SDS011;33930;-34.276;150.954;2022-08-11T17:14:13;2.90;;;1.40;;
44642;SDS011;33930;-34.276;150.954;2022-08-11T17:16:44;5.05;;;1.42;;
44642;SDS011;33930;-34.276;150.954;2022-08-11T17:21:46;7.35;;;2.10;;
44642;SDS011;33930;-34.276;150.954;2022-08-11T17:24:34;6.15;;;2.10;;
44642;SDS011;33930;-34.276;150.954;2022-08-11T17:27:06;9.10;;;2.33;;
44642;SDS011;33930;-34.276;150.954;2022-08-11T17:29:36;9.18;;;2.22;;
44642;SDS011;33930;-34.276;150.954;2022-08-11T17:32:07;9.25;;;2.35;;
44642;SDS011;33930;-34.276;150.954;2022-08-11T17:34:59;3.33;;;1.98;;
44642;SDS011;33930;-34.276;150.954;2022-08-11T17:40:36;12.52;;;2.90;;
44642;SDS011;33930;-34.276;150.954;2022-08-11T17:43:25;11.15;;;2.13;;
44642;SDS011;33930;-34.276;150.954;2022-08-11T17:46:12;10.48;;;2.38;;
44642;SDS011;33930;-34.276;150.954;2022-08-11T17:48:59;13.48;;;2.17;;
44642;SDS011;33930;-34.276;150.954;2022-08-11T17:51:28;11.48;;;2.40;;
44642;SDS011;33930;-34.276;150.954;2022-08-11T17:54:14;9.50;;;1.80;;
44642;SDS011;33930;-34.276;150.954;2022-08-11T17:57:12;10.18;;;2.28;;
44642;SDS011;33930;-34.276;150.954;2022-08-11T17:59:58;10.40;;;2.60;;
44642;SDS011;33930;-34.276;150.954;2022-08-11T18:02:32;10.98;;;1.58;;
44642;SDS011;33930;-34.276;150.954;2022-08-11T18:05:21;9.52;;;1.88;;
44642;SDS011;33930;-34.276;150.954;2022-08-11T18:07:52;9.05;;;2.83;;
44642;SDS011;33930;-34.276;150.954;2022-08-11T18:10:41;11.45;;;2.10;;
44642;SDS011;33930;-34.276;150.954;2022-08-11T18:13:29;6.72;;;3.38;;
44642;SDS011;33930;-34.276;150.954;2022-08-11T18:16:21;4.68;;;1.70;;
44642;SDS011;33930;-34.276;150.954;2022-08-11T18:19:07;6.25;;;1.83;;
44642;SDS011;33930;-34.276;150.954;2022-08-11T18:21:58;5.65;;;1.83;;
44642;SDS011;33930;-34.276;150.954;2022-08-11T18:24:56;5.55;;;2.03;;
44642;SDS011;33930;-34.276;150.954;2022-08-11T18:27:48;7.35;;;1.85;;
44642;SDS011;33930;-34.276;150.954;2022-08-11T18:30:37;9.65;;;2.00;;
44642;SDS011;33930;-34.276;150.954;2022-08-11T18:33:25;12.52;;;2.47;;
44642;SDS011;33930;-34.276;150.954;2022-08-11T18:36:14;9.45;;;2.08;;
44642;SDS011;33930;-34.276;150.954;2022-08-11T18:39:04;8.07;;;3.17;;
44642;SDS011;33930;-34.276;150.954;2022-08-11T18:41:52;16.02;;;2.75;;
44642;SDS011;33930;-34.276;150.954;2022-08-11T18:44:40;6.95;;;1.88;;
44642;SDS011;33930;-34.276;150.954;2022-08-11T18:47:27;11.80;;;2.38;;
44642;SDS011;33930;-34.276;150.954;2022-08-11T18:50:15;7.75;;;1.65;;
44642;SDS011;33930;-34.276;150.954;2022-08-11T18:53:01;14.80;;;2.63;;
44642;SDS011;33930;-34.276;150.954;2022-08-11T18:55:50;11.10;;;2.92;;
44642;SDS011;33930;-34.276;150.954;2022-08-11T18:58:36;8.27;;;2.75;;
44642;SDS011;33930;-34.276;150.954;2022-08-11T19:01:28;9.77;;;1.92;;
44642;SDS011;33930;-34.276;150.954;2022-08-11T19:04:16;5.70;;;2.05;;
44642;SDS011;33930;-34.276;150.954;2022-08-11T19:07:02;11.35;;;2.47;;
44642;SDS011;33930;-34.276;150.954;2022-08-11T19:09:49;6.00;;;2.08;;
44642;SDS011;33930;-34.276;150.954;2022-08-11T19:12:37;6.60;;;1.80;;
44642;SDS011;33930;-34.276;150.954;2022-08-11T19:15:25;11.18;;;2.90;;
44642;SDS011;33930;-34.276;150.954;2022-08-11T19:18:18;10.82;;;2.15;;
44642;SDS011;33930;-34.276;150.954;2022-08-11T19:21:06;9.15;;;2.38;;
44642;SDS011;33930;-34.276;150.954;2022-08-11T19:23:53;9.85;;;2.40;;
44642;SDS011;33930;-34.276;150.954;2022-08-11T19:26:43;14.48;;;1.75;;
44642;SDS011;33930;-34.276;150.954;2022-08-11T19:29:29;5.45;;;2.10;;
44642;SDS011;33930;-34.276;150.954;2022-08-11T19:32:18;6.38;;;2.03;;